sensor_id;sensor_type;location;lat;lon;timestamp;P1;durP1;ratioP1;P2;durP2;ratioP2
60979;SDS011;46851;49.160;8.980;2022-10-26T00:00:13;12.07;;;4.68;;
60979;SDS011;46851;49.160;8.980;2022-10-26T00:02:40;12.00;;;4.47;;
60979;SDS011;46851;49.160;8.980;2022-10-26T00:05:06;9.45;;;4.05;;
60979;SDS011;46851;49.160;8.980;2022-10-26T00:07:33;10.70;;;3.65;;
60979;SDS011;46851;49.160;8.980;2022-10-26T00:09:59;10.07;;;4.07;;
60979;SDS011;46851;49.160;8.980;2022-10-26T00:12:25;13.52;;;4.18;;
60979;SDS011;46851;49.160;8.980;2022-10-26T00:14:51;14.45;;;4.75;;
60979;SDS011;46851;49.160;8.980;2022-10-26T00:17:17;6.00;;;4.28;;
60979;SDS011;46851;49.160;8.980;2022-10-26T00:19:43;15.32;;;4.82;;
60979;SDS011;46851;49.160;8.980;2022-10-26T00:22:09;10.70;;;5.15;;
60979;SDS011;46851;49.160;8.980;2022-10-26T00:24:35;12.15;;;4.70;;
60979;SDS011;46851;49.160;8.980;2022-10-26T00:27:01;9.00;;;4.78;;
60979;SDS011;46851;49.160;8.980;2022-10-26T00:29:27;10.80;;;4.60;;
60979;SDS011;46851;49.160;8.980;2022-10-26T00:31:53;6.53;;;3.92;;
60979;SDS011;46851;49.160;8.980;2022-10-26T00:34:19;6.22;;;3.60;;
60979;SDS011;46851;49.160;8.980;2022-10-26T00:36:45;8.13;;;3.80;;
60979;SDS011;46851;49.160;8.980;2022-10-26T00:39:11;9.10;;;3.85;;
60979;SDS011;46851;49.160;8.980;2022-10-26T00:41:38;15.23;;;4.13;;
60979;SDS011;46851;49.160;8.980;2022-10-26T00:46:48;12.70;;;4.22;;
60979;SDS011;46851;49.160;8.980;2022-10-26T00:49:15;9.07;;;3.60;;
60979;SDS011;46851;49.160;8.980;2022-10-26T00:51:43;8.82;;;4.03;;
60979;SDS011;46851;49.160;8.980;2022-10-26T00:54:12;8.23;;;3.45;;
60979;SDS011;46851;49.160;8.980;2022-10-26T00:56:40;9.13;;;3.67;;
60979;SDS011;46851;49.160;8.980;2022-10-26T00:59:07;6.78;;;3.13;;
60979;SDS011;46851;49.160;8.980;2022-10-26T01:01:34;8.45;;;2.97;;
60979;SDS011;46851;49.160;8.980;2022-10-26T01:04:01;8.32;;;3.05;;
60979;SDS011;46851;49.160;8.980;2022-10-26T01:06:27;8.40;;;3.95;;
60979;SDS011;46851;49.160;8.980;2022-10-26T01:08:53;13.10;;;4.80;;
60979;SDS011;46851;49.160;8.980;2022-10-26T01:11:19;7.32;;;3.60;;
60979;SDS011;46851;49.160;8.980;2022-10-26T01:13:46;10.52;;;3.90;;
60979;SDS011;46851;49.160;8.980;2022-10-26T01:21:25;8.48;;;3.10;;
60979;SDS011;46851;49.160;8.980;2022-10-26T01:23:58;12.48;;;3.08;;
60979;SDS011;46851;49.160;8.980;2022-10-26T01:29:27;3.72;;;2.70;;
60979;SDS011;46851;49.160;8.980;2022-10-26T01:32:08;9.48;;;2.90;;
60979;SDS011;46851;49.160;8.980;2022-10-26T01:34:58;5.25;;;2.60;;
60979;SDS011;46851;49.160;8.980;2022-10-26T01:37:26;5.45;;;2.85;;
60979;SDS011;46851;49.160;8.980;2022-10-26T01:39:57;8.73;;;3.10;;
60979;SDS011;46851;49.160;8.980;2022-10-26T01:42:24;8.98;;;2.78;;
60979;SDS011;46851;49.160;8.980;2022-10-26T01:44:52;7.75;;;2.97;;
60979;SDS011;46851;49.160;8.980;2022-10-26T01:47:19;10.60;;;3.70;;
60979;SDS011;46851;49.160;8.980;2022-10-26T01:49:47;8.02;;;3.60;;
60979;SDS011;46851;49.160;8.980;2022-10-26T01:52:14;8.50;;;3.40;;
60979;SDS011;46851;49.160;8.980;2022-10-26T01:54:40;11.32;;;4.43;;
60979;SDS011;46851;49.160;8.980;2022-10-26T01:57:07;9.15;;;4.38;;
60979;SDS011;46851;49.160;8.980;2022-10-26T02:15:21;6.72;;;3.10;;
60979;SDS011;46851;49.160;8.980;2022-10-26T02:17:53;8.65;;;3.28;;
60979;SDS011;46851;49.160;8.980;2022-10-26T02:20:24;6.75;;;3.47;;
60979;SDS011;46851;49.160;8.980;2022-10-26T02:22:51;12.45;;;3.97;;
60979;SDS011;46851;49.160;8.980;2022-10-26T02:25:39;8.02;;;3.13;;
60979;SDS011;46851;49.160;8.980;2022-10-26T02:28:07;8.63;;;3.33;;
60979;SDS011;46851;49.160;8.980;2022-10-26T02:30:35;10.60;;;4.00;;
60979;SDS011;46851;49.160;8.980;2022-10-26T02:33:02;8.60;;;3.65;;
60979;SDS011;46851;49.160;8.980;2022-10-26T02:35:31;8.73;;;3.95;;
60979;SDS011;46851;49.160;8.980;2022-10-26T02:37:59;11.15;;;3.70;;
60979;SDS011;46851;49.160;8.980;2022-10-26T02:40:26;12.45;;;4.20;;
60979;SDS011;46851;49.160;8.980;2022-10-26T02:42:53;8.65;;;3.75;;
60979;SDS011;46851;49.160;8.980;2022-10-26T02:45:21;9.50;;;4.05;;
60979;SDS011;46851;49.160;8.980;2022-10-26T02:47:49;6.55;;;3.85;;
60979;SDS011;46851;49.160;8.980;2022-10-26T02:50:15;9.38;;;4.32;;
60979;SDS011;46851;49.160;8.980;2022-10-26T02:52:58;8.95;;;3.95;;
60979;SDS011;46851;49.160;8.980;2022-10-26T02:55:35;11.20;;;4.60;;
60979;SDS011;46851;49.160;8.980;2022-10-26T02:58:05;10.75;;;4.15;;
60979;SDS011;46851;49.160;8.980;2022-10-26T03:00:34;15.27;;;4.30;;
60979;SDS011;46851;49.160;8.980;2022-10-26T03:03:00;8.60;;;3.88;;
60979;SDS011;46851;49.160;8.980;2022-10-26T03:05:31;7.95;;;3.72;;
60979;SDS011;46851;49.160;8.980;2022-10-26T03:07:57;8.30;;;4.22;;
60979;SDS011;46851;49.160;8.980;2022-10-26T03:10:24;12.68;;;4.13;;
60979;SDS011;46851;49.160;8.980;2022-10-26T03:12:50;9.73;;;4.00;;
60979;SDS011;46851;49.160;8.980;2022-10-26T03:15:16;6.65;;;4.13;;
60979;SDS011;46851;49.160;8.980;2022-10-26T03:26:33;4.95;;;3.17;;
60979;SDS011;46851;49.160;8.980;2022-10-26T03:28:59;12.88;;;3.90;;
60979;SDS011;46851;49.160;8.980;2022-10-26T03:31:26;11.27;;;4.40;;
60979;SDS011;46851;49.160;8.980;2022-10-26T03:33:52;8.52;;;3.88;;
60979;SDS011;46851;49.160;8.980;2022-10-26T03:36:18;8.18;;;3.88;;
60979;SDS011;46851;49.160;8.980;2022-10-26T03:38:44;9.40;;;4.38;;
60979;SDS011;46851;49.160;8.980;2022-10-26T03:41:10;9.25;;;4.18;;
60979;SDS011;46851;49.160;8.980;2022-10-26T03:43:36;13.25;;;4.70;;
60979;SDS011;46851;49.160;8.980;2022-10-26T03:46:02;11.45;;;4.80;;
60979;SDS011;46851;49.160;8.980;2022-10-26T03:48:28;8.93;;;3.80;;
60979;SDS011;46851;49.160;8.980;2022-10-26T03:50:57;11.55;;;4.18;;
60979;SDS011;46851;49.160;8.980;2022-10-26T03:53:23;9.77;;;3.60;;
60979;SDS011;46851;49.160;8.980;2022-10-26T03:55:49;6.57;;;3.40;;
60979;SDS011;46851;49.160;8.980;2022-10-26T03:58:15;7.05;;;3.67;;
60979;SDS011;46851;49.160;8.980;2022-10-26T04:00:41;7.40;;;4.30;;
60979;SDS011;46851;49.160;8.980;2022-10-26T04:03:07;8.15;;;3.88;;
60979;SDS011;46851;49.160;8.980;2022-10-26T04:05:33;6.22;;;4.03;;
60979;SDS011;46851;49.160;8.980;2022-10-26T04:08:00;13.50;;;4.05;;
60979;SDS011;46851;49.160;8.980;2022-10-26T04:10:29;10.85;;;3.28;;
60979;SDS011;46851;49.160;8.980;2022-10-26T04:12:55;13.40;;;4.13;;
60979;SDS011;46851;49.160;8.980;2022-10-26T04:15:23;8.82;;;3.25;;
60979;SDS011;46851;49.160;8.980;2022-10-26T04:17:59;8.20;;;3.63;;
60979;SDS011;46851;49.160;8.980;2022-10-26T04:20:25;8.68;;;4.32;;
60979;SDS011;46851;49.160;8.980;2022-10-26T04:22:56;6.90;;;3.65;;
60979;SDS011;46851;49.160;8.980;2022-10-26T04:25:22;11.45;;;3.72;;
60979;SDS011;46851;49.160;8.980;2022-10-26T04:27:48;11.15;;;4.15;;
60979;SDS011;46851;49.160;8.980;2022-10-26T04:30:14;7.68;;;3.60;;
60979;SDS011;46851;49.160;8.980;2022-10-26T04:32:40;11.15;;;4.13;;
60979;SDS011;46851;49.160;8.980;2022-10-26T04:35:06;6.95;;;3.60;;
60979;SDS011;46851;49.160;8.980;2022-10-26T04:37:32;10.35;;;3.67;;
60979;SDS011;46851;49.160;8.980;2022-10-26T04:39:58;6.43;;;3.55;;
60979;SDS011;46851;49.160;8.980;2022-10-26T04:42:24;7.82;;;3.47;;
60979;SDS011;46851;49.160;8.980;2022-10-26T04:44:50;8.82;;;3.78;;
60979;SDS011;46851;49.160;8.980;2022-10-26T04:47:16;6.53;;;3.95;;
60979;SDS011;46851;49.160;8.980;2022-10-26T04:49:42;14.38;;;3.90;;
60979;SDS011;46851;49.160;8.980;2022-10-26T04:52:08;8.75;;;3.63;;
60979;SDS011;46851;49.160;8.980;2022-10-26T04:54:34;8.68;;;3.83;;
60979;SDS011;46851;49.160;8.980;2022-10-26T04:57:00;8.00;;;4.40;;
60979;SDS011;46851;49.160;8.980;2022-10-26T04:59:26;9.98;;;3.83;;
60979;SDS011;46851;49.160;8.980;2022-10-26T05:01:52;8.18;;;3.58;;
60979;SDS011;46851;49.160;8.980;2022-10-26T05:04:18;15.68;;;4.72;;
60979;SDS011;46851;49.160;8.980;2022-10-26T05:06:44;7.88;;;3.75;;
60979;SDS011;46851;49.160;8.980;2022-10-26T05:09:10;8.20;;;3.60;;
60979;SDS011;46851;49.160;8.980;2022-10-26T05:11:36;9.25;;;3.85;;
60979;SDS011;46851;49.160;8.980;2022-10-26T05:14:02;8.77;;;4.10;;
60979;SDS011;46851;49.160;8.980;2022-10-26T05:16:28;14.30;;;4.28;;
60979;SDS011;46851;49.160;8.980;2022-10-26T05:18:54;12.80;;;5.00;;
60979;SDS011;46851;49.160;8.980;2022-10-26T05:21:20;11.65;;;5.50;;
60979;SDS011;46851;49.160;8.980;2022-10-26T05:23:49;9.75;;;3.35;;
60979;SDS011;46851;49.160;8.980;2022-10-26T05:26:21;9.18;;;6.80;;
60979;SDS011;46851;49.160;8.980;2022-10-26T05:28:47;7.47;;;3.72;;
60979;SDS011;46851;49.160;8.980;2022-10-26T05:31:14;10.93;;;4.53;;
60979;SDS011;46851;49.160;8.980;2022-10-26T05:33:40;11.55;;;4.15;;
60979;SDS011;46851;49.160;8.980;2022-10-26T05:36:06;8.38;;;4.38;;
60979;SDS011;46851;49.160;8.980;2022-10-26T05:38:32;7.60;;;4.97;;
60979;SDS011;46851;49.160;8.980;2022-10-26T05:40:58;9.68;;;4.88;;
60979;SDS011;46851;49.160;8.980;2022-10-26T05:43:25;10.07;;;4.15;;
60979;SDS011;46851;49.160;8.980;2022-10-26T05:45:52;8.23;;;4.47;;
60979;SDS011;46851;49.160;8.980;2022-10-26T05:48:21;7.65;;;4.35;;
60979;SDS011;46851;49.160;8.980;2022-10-26T05:50:47;10.13;;;4.05;;
60979;SDS011;46851;49.160;8.980;2022-10-26T05:53:13;11.48;;;5.20;;
60979;SDS011;46851;49.160;8.980;2022-10-26T05:55:39;10.77;;;4.50;;
60979;SDS011;46851;49.160;8.980;2022-10-26T05:58:11;11.68;;;5.55;;
60979;SDS011;46851;49.160;8.980;2022-10-26T06:01:21;10.90;;;4.95;;
60979;SDS011;46851;49.160;8.980;2022-10-26T06:03:37;7.80;;;4.32;;
60979;SDS011;46851;49.160;8.980;2022-10-26T06:06:06;7.10;;;3.83;;
60979;SDS011;46851;49.160;8.980;2022-10-26T06:08:36;8.98;;;4.47;;
60979;SDS011;46851;49.160;8.980;2022-10-26T06:11:02;9.40;;;4.55;;
60979;SDS011;46851;49.160;8.980;2022-10-26T06:13:28;7.72;;;4.70;;
60979;SDS011;46851;49.160;8.980;2022-10-26T06:31:01;10.95;;;6.93;;
60979;SDS011;46851;49.160;8.980;2022-10-26T06:33:28;12.35;;;4.72;;
60979;SDS011;46851;49.160;8.980;2022-10-26T06:38:39;7.68;;;3.47;;
60979;SDS011;46851;49.160;8.980;2022-10-26T06:41:08;13.10;;;4.97;;
60979;SDS011;46851;49.160;8.980;2022-10-26T06:43:36;6.78;;;3.95;;
60979;SDS011;46851;49.160;8.980;2022-10-26T06:51:15;7.82;;;4.07;;
60979;SDS011;46851;49.160;8.980;2022-10-26T06:56:08;8.85;;;3.38;;
60979;SDS011;46851;49.160;8.980;2022-10-26T06:58:36;6.82;;;3.63;;
60979;SDS011;46851;49.160;8.980;2022-10-26T07:01:02;7.53;;;3.60;;
60979;SDS011;46851;49.160;8.980;2022-10-26T07:03:28;7.13;;;3.22;;
60979;SDS011;46851;49.160;8.980;2022-10-26T07:05:54;8.70;;;3.15;;
60979;SDS011;46851;49.160;8.980;2022-10-26T07:08:20;7.72;;;3.85;;
60979;SDS011;46851;49.160;8.980;2022-10-26T07:10:46;12.98;;;6.50;;
60979;SDS011;46851;49.160;8.980;2022-10-26T07:13:13;12.75;;;4.55;;
60979;SDS011;46851;49.160;8.980;2022-10-26T07:15:39;11.85;;;4.60;;
60979;SDS011;46851;49.160;8.980;2022-10-26T07:18:07;5.90;;;3.00;;
60979;SDS011;46851;49.160;8.980;2022-10-26T07:20:36;7.97;;;3.58;;
60979;SDS011;46851;49.160;8.980;2022-10-26T07:25:31;8.73;;;2.78;;
60979;SDS011;46851;49.160;8.980;2022-10-26T07:27:57;4.55;;;2.90;;
60979;SDS011;46851;49.160;8.980;2022-10-26T07:30:24;6.00;;;2.85;;
60979;SDS011;46851;49.160;8.980;2022-10-26T07:32:57;12.57;;;3.58;;
60979;SDS011;46851;49.160;8.980;2022-10-26T07:47:10;10.35;;;3.65;;
60979;SDS011;46851;49.160;8.980;2022-10-26T07:49:36;10.40;;;3.67;;
60979;SDS011;46851;49.160;8.980;2022-10-26T07:52:02;8.45;;;3.17;;
60979;SDS011;46851;49.160;8.980;2022-10-26T07:54:28;7.57;;;3.03;;
60979;SDS011;46851;49.160;8.980;2022-10-26T07:56:57;7.75;;;3.45;;
60979;SDS011;46851;49.160;8.980;2022-10-26T07:59:23;8.90;;;3.23;;
60979;SDS011;46851;49.160;8.980;2022-10-26T08:01:50;9.40;;;3.00;;
60979;SDS011;46851;49.160;8.980;2022-10-26T08:04:16;9.80;;;3.00;;
60979;SDS011;46851;49.160;8.980;2022-10-26T08:06:43;10.27;;;3.47;;
60979;SDS011;46851;49.160;8.980;2022-10-26T08:09:09;10.20;;;3.85;;
60979;SDS011;46851;49.160;8.980;2022-10-26T08:11:35;6.75;;;4.10;;
60979;SDS011;46851;49.160;8.980;2022-10-26T08:14:01;13.52;;;3.75;;
60979;SDS011;46851;49.160;8.980;2022-10-26T08:16:27;7.07;;;4.25;;
60979;SDS011;46851;49.160;8.980;2022-10-26T08:18:53;11.52;;;3.60;;
60979;SDS011;46851;49.160;8.980;2022-10-26T08:21:19;17.00;;;3.90;;
60979;SDS011;46851;49.160;8.980;2022-10-26T08:23:45;29.23;;;4.63;;
60979;SDS011;46851;49.160;8.980;2022-10-26T08:26:12;18.20;;;4.25;;
60979;SDS011;46851;49.160;8.980;2022-10-26T08:28:38;23.17;;;5.55;;
60979;SDS011;46851;49.160;8.980;2022-10-26T08:44:45;6.53;;;3.80;;
60979;SDS011;46851;49.160;8.980;2022-10-26T08:47:17;9.48;;;3.58;;
60979;SDS011;46851;49.160;8.980;2022-10-26T08:49:45;9.02;;;2.97;;
60979;SDS011;46851;49.160;8.980;2022-10-26T08:52:14;5.37;;;2.70;;
60979;SDS011;46851;49.160;8.980;2022-10-26T08:54:44;7.28;;;2.78;;
60979;SDS011;46851;49.160;8.980;2022-10-26T08:57:15;28.58;;;4.78;;
60979;SDS011;46851;49.160;8.980;2022-10-26T08:59:54;10.95;;;2.60;;
60979;SDS011;46851;49.160;8.980;2022-10-26T09:02:21;6.68;;;2.60;;
60979;SDS011;46851;49.160;8.980;2022-10-26T09:04:48;9.75;;;2.97;;
60979;SDS011;46851;49.160;8.980;2022-10-26T09:12:27;6.57;;;2.65;;
60979;SDS011;46851;49.160;8.980;2022-10-26T09:25:23;19.65;;;2.90;;
60979;SDS011;46851;49.160;8.980;2022-10-26T09:27:55;6.73;;;2.40;;
60979;SDS011;46851;49.160;8.980;2022-10-26T09:30:22;6.22;;;2.80;;
60979;SDS011;46851;49.160;8.980;2022-10-26T09:32:49;7.10;;;2.50;;
60979;SDS011;46851;49.160;8.980;2022-10-26T09:35:21;8.80;;;2.17;;
60979;SDS011;46851;49.160;8.980;2022-10-26T09:37:49;5.70;;;1.90;;
60979;SDS011;46851;49.160;8.980;2022-10-26T09:47:53;10.68;;;2.30;;
60979;SDS011;46851;49.160;8.980;2022-10-26T09:55:15;9.18;;;2.40;;
60979;SDS011;46851;49.160;8.980;2022-10-26T09:57:45;23.15;;;3.13;;
60979;SDS011;46851;49.160;8.980;2022-10-26T10:00:15;15.98;;;2.63;;
60979;SDS011;46851;49.160;8.980;2022-10-26T10:02:42;18.20;;;2.63;;
60979;SDS011;46851;49.160;8.980;2022-10-26T10:08:09;15.98;;;3.20;;
60979;SDS011;46851;49.160;8.980;2022-10-26T10:10:36;10.85;;;2.85;;
60979;SDS011;46851;49.160;8.980;2022-10-26T10:13:15;11.82;;;2.60;;
60979;SDS011;46851;49.160;8.980;2022-10-26T10:18:17;13.20;;;2.75;;
60979;SDS011;46851;49.160;8.980;2022-10-26T10:20:48;11.48;;;2.40;;
60979;SDS011;46851;49.160;8.980;2022-10-26T10:23:28;12.25;;;2.65;;
60979;SDS011;46851;49.160;8.980;2022-10-26T10:26:07;6.95;;;2.33;;
60979;SDS011;46851;49.160;8.980;2022-10-26T10:28:37;9.35;;;2.20;;
60979;SDS011;46851;49.160;8.980;2022-10-26T10:31:26;9.25;;;2.70;;
60979;SDS011;46851;49.160;8.980;2022-10-26T10:33:50;5.60;;;2.22;;
60979;SDS011;46851;49.160;8.980;2022-10-26T10:36:18;10.98;;;2.40;;
60979;SDS011;46851;49.160;8.980;2022-10-26T10:38:45;13.57;;;3.33;;
60979;SDS011;46851;49.160;8.980;2022-10-26T10:41:16;9.05;;;2.45;;
60979;SDS011;46851;49.160;8.980;2022-10-26T10:43:44;11.30;;;2.13;;
60979;SDS011;46851;49.160;8.980;2022-10-26T10:46:11;8.85;;;2.30;;
60979;SDS011;46851;49.160;8.980;2022-10-26T10:48:45;11.30;;;2.25;;
60979;SDS011;46851;49.160;8.980;2022-10-26T10:51:12;7.60;;;2.13;;
60979;SDS011;46851;49.160;8.980;2022-10-26T10:53:44;15.23;;;2.90;;
60979;SDS011;46851;49.160;8.980;2022-10-26T10:56:23;32.80;;;4.28;;
60979;SDS011;46851;49.160;8.980;2022-10-26T11:01:38;14.70;;;2.47;;
60979;SDS011;46851;49.160;8.980;2022-10-26T11:06:50;10.07;;;2.40;;
60979;SDS011;46851;49.160;8.980;2022-10-26T11:09:17;20.30;;;3.38;;
60979;SDS011;46851;49.160;8.980;2022-10-26T11:14:15;16.27;;;2.30;;
60979;SDS011;46851;49.160;8.980;2022-10-26T11:16:46;20.10;;;2.78;;
60979;SDS011;46851;49.160;8.980;2022-10-26T11:19:27;8.32;;;2.75;;
60979;SDS011;46851;49.160;8.980;2022-10-26T11:21:54;11.35;;;2.33;;
60979;SDS011;46851;49.160;8.980;2022-10-26T11:24:24;18.17;;;2.55;;
60979;SDS011;46851;49.160;8.980;2022-10-26T11:27:02;12.70;;;2.88;;
60979;SDS011;46851;49.160;8.980;2022-10-26T11:32:00;18.80;;;3.58;;
60979;SDS011;46851;49.160;8.980;2022-10-26T11:34:32;14.60;;;3.17;;
60979;SDS011;46851;49.160;8.980;2022-10-26T11:37:14;9.15;;;2.28;;
60979;SDS011;46851;49.160;8.980;2022-10-26T11:39:43;20.13;;;3.72;;
60979;SDS011;46851;49.160;8.980;2022-10-26T11:42:20;11.93;;;2.10;;
60979;SDS011;46851;49.160;8.980;2022-10-26T11:45:31;8.27;;;1.90;;
60979;SDS011;46851;49.160;8.980;2022-10-26T11:47:54;7.45;;;1.98;;
60979;SDS011;46851;49.160;8.980;2022-10-26T11:50:26;7.65;;;2.22;;
60979;SDS011;46851;49.160;8.980;2022-10-26T11:52:58;13.27;;;2.50;;
60979;SDS011;46851;49.160;8.980;2022-10-26T11:55:25;9.30;;;2.25;;
60979;SDS011;46851;49.160;8.980;2022-10-26T11:57:52;11.70;;;2.47;;
60979;SDS011;46851;49.160;8.980;2022-10-26T12:00:19;15.60;;;2.15;;
60979;SDS011;46851;49.160;8.980;2022-10-26T12:02:49;7.45;;;2.15;;
60979;SDS011;46851;49.160;8.980;2022-10-26T12:05:34;16.63;;;2.38;;
60979;SDS011;46851;49.160;8.980;2022-10-26T12:08:12;8.38;;;2.05;;
60979;SDS011;46851;49.160;8.980;2022-10-26T12:10:39;7.55;;;2.00;;
60979;SDS011;46851;49.160;8.980;2022-10-26T12:13:14;9.55;;;2.00;;
60979;SDS011;46851;49.160;8.980;2022-10-26T12:15:54;16.75;;;2.25;;
60979;SDS011;46851;49.160;8.980;2022-10-26T12:21:06;43.17;;;5.00;;
60979;SDS011;46851;49.160;8.980;2022-10-26T12:23:37;64.70;;;7.35;;
60979;SDS011;46851;49.160;8.980;2022-10-26T12:33:57;12.60;;;2.78;;
60979;SDS011;46851;49.160;8.980;2022-10-26T12:39:23;13.13;;;2.33;;
60979;SDS011;46851;49.160;8.980;2022-10-26T12:41:57;15.35;;;2.38;;
60979;SDS011;46851;49.160;8.980;2022-10-26T12:44:37;6.88;;;1.88;;
60979;SDS011;46851;49.160;8.980;2022-10-26T12:47:09;11.32;;;3.10;;
60979;SDS011;46851;49.160;8.980;2022-10-26T13:00:16;61.78;;;6.15;;
60979;SDS011;46851;49.160;8.980;2022-10-26T13:08:07;22.73;;;3.47;;
60979;SDS011;46851;49.160;8.980;2022-10-26T13:10:34;20.40;;;3.00;;
60979;SDS011;46851;49.160;8.980;2022-10-26T13:13:02;20.13;;;3.60;;
60979;SDS011;46851;49.160;8.980;2022-10-26T13:15:40;45.40;;;4.30;;
60979;SDS011;46851;49.160;8.980;2022-10-26T13:18:17;10.02;;;2.20;;
60979;SDS011;46851;49.160;8.980;2022-10-26T13:20:51;23.00;;;2.90;;
60979;SDS011;46851;49.160;8.980;2022-10-26T13:23:20;10.73;;;2.55;;
60979;SDS011;46851;49.160;8.980;2022-10-26T13:30:59;18.70;;;2.67;;
60979;SDS011;46851;49.160;8.980;2022-10-26T13:33:30;13.50;;;2.22;;
60979;SDS011;46851;49.160;8.980;2022-10-26T13:36:01;18.98;;;3.15;;
60979;SDS011;46851;49.160;8.980;2022-10-26T13:38:31;19.00;;;2.45;;
60979;SDS011;46851;49.160;8.980;2022-10-26T13:41:03;14.05;;;2.60;;
60979;SDS011;46851;49.160;8.980;2022-10-26T13:43:30;31.77;;;4.80;;
60979;SDS011;46851;49.160;8.980;2022-10-26T13:46:00;22.83;;;3.25;;
60979;SDS011;46851;49.160;8.980;2022-10-26T13:50:54;21.48;;;3.08;;
60979;SDS011;46851;49.160;8.980;2022-10-26T13:53:31;27.77;;;3.17;;
60979;SDS011;46851;49.160;8.980;2022-10-26T13:56:14;15.65;;;2.53;;
60979;SDS011;46851;49.160;8.980;2022-10-26T13:58:41;11.90;;;2.30;;
60979;SDS011;46851;49.160;8.980;2022-10-26T14:03:38;9.27;;;2.20;;
60979;SDS011;46851;49.160;8.980;2022-10-26T14:06:12;7.75;;;1.73;;
60979;SDS011;46851;49.160;8.980;2022-10-26T14:08:40;17.77;;;2.15;;
60979;SDS011;46851;49.160;8.980;2022-10-26T14:11:06;10.32;;;1.95;;
60979;SDS011;46851;49.160;8.980;2022-10-26T14:13:35;7.60;;;1.92;;
60979;SDS011;46851;49.160;8.980;2022-10-26T14:16:01;7.85;;;1.92;;
60979;SDS011;46851;49.160;8.980;2022-10-26T14:18:31;10.52;;;2.03;;
60979;SDS011;46851;49.160;8.980;2022-10-26T14:23:28;14.40;;;2.70;;
60979;SDS011;46851;49.160;8.980;2022-10-26T14:25:57;26.33;;;2.83;;
60979;SDS011;46851;49.160;8.980;2022-10-26T14:28:24;7.38;;;1.80;;
60979;SDS011;46851;49.160;8.980;2022-10-26T14:30:50;8.70;;;2.10;;
60979;SDS011;46851;49.160;8.980;2022-10-26T14:33:17;15.18;;;2.42;;
60979;SDS011;46851;49.160;8.980;2022-10-26T14:35:44;5.15;;;1.70;;
60979;SDS011;46851;49.160;8.980;2022-10-26T14:38:21;6.15;;;1.83;;
60979;SDS011;46851;49.160;8.980;2022-10-26T14:40:50;17.17;;;2.63;;
60979;SDS011;46851;49.160;8.980;2022-10-26T14:43:17;10.93;;;2.38;;
60979;SDS011;46851;49.160;8.980;2022-10-26T14:45:47;7.78;;;1.98;;
60979;SDS011;46851;49.160;8.980;2022-10-26T14:48:24;8.23;;;2.00;;
60979;SDS011;46851;49.160;8.980;2022-10-26T14:51:00;11.23;;;2.28;;
60979;SDS011;46851;49.160;8.980;2022-10-26T14:53:31;9.38;;;2.33;;
60979;SDS011;46851;49.160;8.980;2022-10-26T14:55:58;8.38;;;2.20;;
60979;SDS011;46851;49.160;8.980;2022-10-26T14:58:25;11.40;;;2.20;;
60979;SDS011;46851;49.160;8.980;2022-10-26T15:03:37;9.82;;;2.03;;
60979;SDS011;46851;49.160;8.980;2022-10-26T15:08:48;11.02;;;2.28;;
60979;SDS011;46851;49.160;8.980;2022-10-26T15:11:18;10.32;;;1.88;;
60979;SDS011;46851;49.160;8.980;2022-10-26T15:13:44;7.53;;;2.30;;
60979;SDS011;46851;49.160;8.980;2022-10-26T15:16:21;11.07;;;2.22;;
60979;SDS011;46851;49.160;8.980;2022-10-26T15:18:48;11.98;;;2.00;;
60979;SDS011;46851;49.160;8.980;2022-10-26T15:23:44;8.30;;;2.37;;
60979;SDS011;46851;49.160;8.980;2022-10-26T15:26:10;9.43;;;2.78;;
60979;SDS011;46851;49.160;8.980;2022-10-26T15:28:37;7.22;;;2.03;;
60979;SDS011;46851;49.160;8.980;2022-10-26T15:33:36;8.18;;;2.13;;
60979;SDS011;46851;49.160;8.980;2022-10-26T15:38:38;8.00;;;2.05;;
60979;SDS011;46851;49.160;8.980;2022-10-26T15:41:08;5.55;;;1.83;;
60979;SDS011;46851;49.160;8.980;2022-10-26T15:43:38;5.43;;;1.60;;
60979;SDS011;46851;49.160;8.980;2022-10-26T15:46:04;7.35;;;1.88;;
60979;SDS011;46851;49.160;8.980;2022-10-26T15:48:30;5.80;;;1.55;;
60979;SDS011;46851;49.160;8.980;2022-10-26T15:50:59;9.80;;;2.42;;
60979;SDS011;46851;49.160;8.980;2022-10-26T15:53:25;10.02;;;1.88;;
60979;SDS011;46851;49.160;8.980;2022-10-26T15:55:53;6.82;;;1.83;;
60979;SDS011;46851;49.160;8.980;2022-10-26T15:58:20;6.85;;;1.80;;
60979;SDS011;46851;49.160;8.980;2022-10-26T16:00:46;7.35;;;1.90;;
60979;SDS011;46851;49.160;8.980;2022-10-26T16:03:12;13.95;;;2.28;;
60979;SDS011;46851;49.160;8.980;2022-10-26T16:05:39;9.93;;;2.78;;
60979;SDS011;46851;49.160;8.980;2022-10-26T16:08:07;6.75;;;2.75;;
60979;SDS011;46851;49.160;8.980;2022-10-26T16:10:33;9.23;;;2.78;;
60979;SDS011;46851;49.160;8.980;2022-10-26T16:12:59;12.60;;;2.60;;
60979;SDS011;46851;49.160;8.980;2022-10-26T16:15:25;11.55;;;2.53;;
60979;SDS011;46851;49.160;8.980;2022-10-26T16:17:51;8.48;;;2.33;;
60979;SDS011;46851;49.160;8.980;2022-10-26T16:20:19;7.18;;;2.03;;
60979;SDS011;46851;49.160;8.980;2022-10-26T16:22:47;14.88;;;3.20;;
60979;SDS011;46851;49.160;8.980;2022-10-26T16:25:14;9.57;;;2.28;;
60979;SDS011;46851;49.160;8.980;2022-10-26T16:27:40;8.73;;;3.28;;
60979;SDS011;46851;49.160;8.980;2022-10-26T16:30:07;13.40;;;3.30;;
60979;SDS011;46851;49.160;8.980;2022-10-26T16:32:33;14.63;;;3.28;;
60979;SDS011;46851;49.160;8.980;2022-10-26T16:34:59;15.90;;;2.90;;
60979;SDS011;46851;49.160;8.980;2022-10-26T16:37:26;10.98;;;2.60;;
60979;SDS011;46851;49.160;8.980;2022-10-26T16:39:53;11.90;;;3.33;;
60979;SDS011;46851;49.160;8.980;2022-10-26T16:42:19;7.97;;;2.38;;
60979;SDS011;46851;49.160;8.980;2022-10-26T16:44:45;12.50;;;2.85;;
60979;SDS011;46851;49.160;8.980;2022-10-26T16:47:11;14.43;;;3.35;;
60979;SDS011;46851;49.160;8.980;2022-10-26T16:49:37;15.82;;;3.33;;
60979;SDS011;46851;49.160;8.980;2022-10-26T16:52:07;8.27;;;2.60;;
60979;SDS011;46851;49.160;8.980;2022-10-26T16:54:33;12.73;;;3.15;;
60979;SDS011;46851;49.160;8.980;2022-10-26T16:56:59;15.18;;;2.97;;
60979;SDS011;46851;49.160;8.980;2022-10-26T16:59:25;9.85;;;2.72;;
60979;SDS011;46851;49.160;8.980;2022-10-26T17:01:51;17.42;;;3.88;;
60979;SDS011;46851;49.160;8.980;2022-10-26T17:04:17;13.82;;;3.47;;
60979;SDS011;46851;49.160;8.980;2022-10-26T17:06:43;8.07;;;3.30;;
60979;SDS011;46851;49.160;8.980;2022-10-26T17:09:09;8.15;;;3.25;;
60979;SDS011;46851;49.160;8.980;2022-10-26T17:11:35;6.65;;;3.00;;
60979;SDS011;46851;49.160;8.980;2022-10-26T17:14:01;8.65;;;2.80;;
60979;SDS011;46851;49.160;8.980;2022-10-26T17:16:27;12.10;;;3.53;;
60979;SDS011;46851;49.160;8.980;2022-10-26T17:18:53;12.30;;;4.40;;
60979;SDS011;46851;49.160;8.980;2022-10-26T17:21:26;9.73;;;3.53;;
60979;SDS011;46851;49.160;8.980;2022-10-26T17:23:52;10.13;;;3.17;;
60979;SDS011;46851;49.160;8.980;2022-10-26T17:26:18;10.48;;;3.33;;
60979;SDS011;46851;49.160;8.980;2022-10-26T17:28:44;12.40;;;3.40;;
60979;SDS011;46851;49.160;8.980;2022-10-26T17:31:11;12.40;;;3.63;;
60979;SDS011;46851;49.160;8.980;2022-10-26T17:33:38;11.93;;;3.70;;
60979;SDS011;46851;49.160;8.980;2022-10-26T17:36:07;10.10;;;3.47;;
60979;SDS011;46851;49.160;8.980;2022-10-26T17:38:34;13.18;;;3.42;;
60979;SDS011;46851;49.160;8.980;2022-10-26T17:41:00;11.77;;;3.35;;
60979;SDS011;46851;49.160;8.980;2022-10-26T17:43:33;16.67;;;4.00;;
60979;SDS011;46851;49.160;8.980;2022-10-26T17:45:59;12.48;;;4.20;;
60979;SDS011;46851;49.160;8.980;2022-10-26T17:48:26;10.75;;;3.75;;
60979;SDS011;46851;49.160;8.980;2022-10-26T17:50:53;9.63;;;4.38;;
60979;SDS011;46851;49.160;8.980;2022-10-26T17:53:19;12.15;;;4.10;;
60979;SDS011;46851;49.160;8.980;2022-10-26T17:55:45;12.10;;;5.00;;